עמוד ראשי
METAR-TAF:

METAR-TAF

שדות תעופה :

Gulkana, אלסקה, ארצות הברית

קו רוחב: 62-09N, קו אורך: 145-27W, גובה: 481מטר

תצפית מזג אוויר נוכחית

הדו"ח נערך לפני 40דקות, בשעה 18:53 UTC
רוח רגועה
טמפרטורת 16 צלסיוס
לחות 42%
לחץ 1016 hPa
ראות: 16.1קילומטר
שמיים נקיים

METAR: PAGK 201853Z AUTO 00000KT 10SM CLR 16/03 A2999 RMK AO2 SLP154 T01610028 TSNO

זמן: 11:33 (19:33 UTC)

תחזית

הדו"ח נערך לפני 2 שעות ו 5דקות, בשעה 17:28 UTC
תחזית בתוקף מ 20 ב 18 UTC עד 21 ב 18 UTC
רוח 5קשר מכיוון דרום-מזרח
ראות: 10קילומטר
עננים פזורים בגובה 20000רגל
מ 20 ב 2200UTC
רוח 8קשר מכיוון דרום/דרום-מזרח עם משבים עד 18קשר
ראות: 10קילומטר
עננים פזורים בגובה 10000רגל
מ 21 ב 0600UTC
רוח 6קשר מכיוון דרום/דרום-מזרח
ראות: 10קילומטר
מעט עננים בגובה 10000רגל
עננים בינוניים בגובה 20000רגל

TAF: PAGK 201728Z 2018/2118 14005KT P6SM SCT200 FM202200 16008G18KT P6SM SCT100 FM210600 16006KT P6SM FEW100 BKN200

תצפיות ותחזיות מזג אוויר לגבי יותר מ- 4,000 שדות תעופה ברחבי העולם. דוחות METAR ו- TAF.

התחנות הזמינות מסומנות בנקודות צהובות ואדומות על גבי המפה.

העבר את העכבר לנקודה הצבעונית על מנת לראות את שם התחנה.

לאחר מכן, לחץ כדי לראות את תוכן ואת תחזיות מזג האוויר.

כדי לשנות את המפה: לחץ על הכפתורים הירוקים עם הפלוס השחור כדי להתקרב; על הכפתור הירוק עם המקף כדי להתרחק; או בחיצים הירוקים למפות סמוכות.


METAR-TAF: